createdAt,value
2023-01-17T00:02:23.193Z,4.59
2023-01-17T00:05:05.414Z,4.54
2023-01-17T00:07:50.213Z,4.48
2023-01-17T00:10:21.714Z,4.38
2023-01-17T00:12:53.707Z,4.33
2023-01-17T00:15:24.552Z,4.28
2023-01-17T00:17:54.938Z,4.23
2023-01-17T00:20:39.171Z,4.23
2023-01-17T00:23:29.228Z,4.21
2023-01-17T00:26:08.087Z,4.24
2023-01-17T00:28:36.974Z,4.29
2023-01-17T00:31:05.199Z,4.33
2023-01-17T00:33:32.605Z,4.37
2023-01-17T00:36:01.016Z,4.41
2023-01-17T00:38:32.487Z,4.40
2023-01-17T00:41:02.695Z,4.42
2023-01-17T00:43:45.721Z,4.42
2023-01-17T00:46:27.919Z,4.42
2023-01-17T00:49:10.122Z,4.43
2023-01-17T00:51:53.220Z,4.47
2023-01-17T00:54:38.134Z,4.51
2023-01-17T00:57:21.323Z,4.52
2023-01-17T01:00:03.532Z,4.52
2023-01-17T01:02:45.904Z,4.54
2023-01-17T01:05:29.223Z,4.54
2023-01-17T01:08:12.157Z,4.58
2023-01-17T01:10:57.083Z,4.63
2023-01-17T01:13:39.647Z,4.68
2023-01-17T01:16:22.333Z,4.71
2023-01-17T01:19:04.715Z,4.71
2023-01-17T01:21:47.514Z,4.71
2023-01-17T01:24:29.734Z,4.71
2023-01-17T01:27:14.524Z,4.70
2023-01-17T01:29:56.694Z,4.69
2023-01-17T01:32:38.858Z,4.68
2023-01-17T01:35:09.222Z,4.71
2023-01-17T01:37:38.986Z,4.73
2023-01-17T01:40:10.682Z,4.71
2023-01-17T01:42:51.540Z,4.72
2023-01-17T01:45:23.660Z,4.76
2023-01-17T01:47:57.051Z,4.78
2023-01-17T01:50:27.032Z,4.83
2023-01-17T01:53:01.818Z,4.85
2023-01-17T01:55:36.001Z,4.90
2023-01-17T01:58:15.953Z,4.89
2023-01-17T02:00:45.844Z,4.91
2023-01-17T02:03:20.640Z,4.91
2023-01-17T02:05:50.909Z,4.94
2023-01-17T02:08:25.385Z,4.97
2023-01-17T02:10:56.133Z,5.03
2023-01-17T02:13:28.626Z,5.08
2023-01-17T02:16:06.476Z,5.09
2023-01-17T02:18:49.309Z,5.09
2023-01-17T02:21:25.767Z,5.07
2023-01-17T02:24:45.965Z,5.09
2023-01-17T02:27:27.478Z,5.02
2023-01-17T02:30:34.957Z,5.02
2023-01-17T02:33:27.845Z,5.04
2023-01-17T02:36:08.456Z,5.07
2023-01-17T02:38:47.677Z,5.08
2023-01-17T02:41:22.370Z,5.09
2023-01-17T02:43:53.537Z,5.08
2023-01-17T02:46:26.068Z,5.10
2023-01-17T02:48:57.812Z,5.13
2023-01-17T02:51:42.778Z,5.17
2023-01-17T02:54:39.920Z,5.17
2023-01-17T02:57:31.426Z,5.19
2023-01-17T03:00:08.044Z,5.18
2023-01-17T03:02:49.178Z,5.19
2023-01-17T03:05:24.925Z,5.18
2023-01-17T03:07:57.312Z,5.18
2023-01-17T03:10:27.661Z,5.23
2023-01-17T03:13:00.617Z,5.24
2023-01-17T03:15:30.464Z,5.19
2023-01-17T03:18:07.298Z,5.09
2023-01-17T03:20:37.059Z,4.95
2023-01-17T03:23:07.027Z,4.82
2023-01-17T03:25:36.918Z,4.78
2023-01-17T03:28:07.301Z,4.81
2023-01-17T03:30:37.098Z,4.85
2023-01-17T03:33:09.578Z,4.84
2023-01-17T03:35:39.404Z,4.85
2023-01-17T03:38:09.168Z,4.86
2023-01-17T03:40:38.917Z,4.89
2023-01-17T03:43:08.741Z,4.89
2023-01-17T03:45:38.607Z,4.90
2023-01-17T03:48:11.283Z,4.90
2023-01-17T03:50:41.050Z,4.90
2023-01-17T03:53:10.824Z,4.88
2023-01-17T03:55:40.631Z,4.88
2023-01-17T03:58:10.379Z,4.86
2023-01-17T04:00:40.113Z,4.86
2023-01-17T04:03:12.554Z,4.88
2023-01-17T04:05:42.349Z,4.86
2023-01-17T04:08:12.512Z,4.83
2023-01-17T04:10:42.362Z,4.81
2023-01-17T04:13:13.750Z,4.77
2023-01-17T04:15:46.163Z,4.78
2023-01-17T04:18:20.621Z,4.77
2023-01-17T04:20:50.989Z,4.74
2023-01-17T04:23:21.041Z,4.75
2023-01-17T04:25:50.788Z,4.76
2023-01-17T04:28:20.562Z,4.74
2023-01-17T04:30:50.345Z,4.72
2023-01-17T04:33:22.726Z,4.73
2023-01-17T04:35:52.478Z,4.72
2023-01-17T04:38:22.434Z,4.74
2023-01-17T04:40:52.293Z,4.75
2023-01-17T04:43:22.062Z,4.75
2023-01-17T04:45:57.726Z,4.73
2023-01-17T04:48:31.576Z,4.70
2023-01-17T04:51:04.450Z,4.70
2023-01-17T04:53:34.824Z,4.69
2023-01-17T04:56:04.797Z,4.67
2023-01-17T04:58:34.776Z,4.61
2023-01-17T05:01:05.564Z,4.55
2023-01-17T05:03:38.287Z,4.49
2023-01-17T05:06:08.327Z,4.41
2023-01-17T05:08:38.264Z,4.38
2023-01-17T05:11:08.235Z,4.42
2023-01-17T05:13:38.325Z,4.44
2023-01-17T05:16:08.455Z,4.44
2023-01-17T05:18:40.870Z,4.47
2023-01-17T05:21:10.766Z,4.47
2023-01-17T05:23:42.738Z,4.48
2023-01-17T05:26:12.603Z,4.51
2023-01-17T05:28:42.566Z,4.53
2023-01-17T05:31:12.377Z,4.51
2023-01-17T05:33:44.805Z,4.53
2023-01-17T05:36:14.574Z,4.55
2023-01-17T05:38:44.311Z,4.56
2023-01-17T05:41:14.108Z,4.55
2023-01-17T05:43:43.886Z,4.54
2023-01-17T05:46:13.831Z,4.52
2023-01-17T05:48:46.225Z,4.51
2023-01-17T05:51:16.094Z,4.49
2023-01-17T05:53:46.066Z,4.47
2023-01-17T05:56:15.866Z,4.45
2023-01-17T05:58:45.629Z,4.44
2023-01-17T06:01:15.529Z,4.42
2023-01-17T06:03:48.079Z,4.41
2023-01-17T06:06:17.838Z,4.39
2023-01-17T06:08:47.707Z,4.37
2023-01-17T06:11:21.325Z,4.36
2023-01-17T06:13:51.253Z,4.33
2023-01-17T06:16:21.069Z,4.33
2023-01-17T06:18:53.462Z,4.34
2023-01-17T06:21:23.201Z,4.33
2023-01-17T06:23:53.014Z,4.32
2023-01-17T06:26:22.758Z,4.30
2023-01-17T06:28:52.534Z,4.31
2023-01-17T06:31:22.390Z,4.32
2023-01-17T06:33:55.392Z,4.31
2023-01-17T06:36:25.198Z,4.32
2023-01-17T06:38:55.050Z,4.28
2023-01-17T06:41:26.031Z,4.22
2023-01-17T06:43:55.986Z,4.17
2023-01-17T06:46:26.265Z,4.14
2023-01-17T06:48:58.813Z,4.12
2023-01-17T06:51:28.599Z,4.10
2023-01-17T06:53:58.416Z,4.07
2023-01-17T06:56:28.270Z,4.02
2023-01-17T06:58:58.063Z,4.00
2023-01-17T07:01:28.129Z,3.96
2023-01-17T07:04:00.764Z,3.97
2023-01-17T07:06:30.624Z,3.97
2023-01-17T07:09:01.217Z,3.96
2023-01-17T07:11:31.009Z,3.96
2023-01-17T07:14:00.805Z,3.96
2023-01-17T07:16:30.727Z,3.96
2023-01-17T07:19:03.125Z,3.95
2023-01-17T07:21:32.895Z,3.93
2023-01-17T07:24:02.642Z,3.89
2023-01-17T07:26:32.428Z,3.85
2023-01-17T07:29:02.366Z,3.82
2023-01-17T07:31:34.266Z,3.82
2023-01-17T07:34:07.289Z,3.79
2023-01-17T07:36:37.191Z,3.77
2023-01-17T07:39:07.444Z,3.81
2023-01-17T07:41:41.577Z,3.85
2023-01-17T07:44:12.922Z,3.86
2023-01-17T07:46:42.744Z,3.88
2023-01-17T07:49:15.165Z,3.90
2023-01-17T07:51:44.928Z,3.93
2023-01-17T07:54:14.805Z,3.93
2023-01-17T07:56:47.222Z,3.98
2023-01-17T07:59:18.160Z,4.00
2023-01-17T08:01:48.232Z,4.02
2023-01-17T08:04:20.646Z,4.07
2023-01-17T08:06:51.854Z,4.12
2023-01-17T08:09:21.656Z,4.17
2023-01-17T08:11:51.446Z,4.21
2023-01-17T08:14:21.265Z,4.24
2023-01-17T08:16:51.079Z,4.28
2023-01-17T08:19:23.573Z,4.31
2023-01-17T08:21:53.330Z,4.33
2023-01-17T08:24:24.676Z,4.36
2023-01-17T08:26:55.118Z,4.37
2023-01-17T08:29:25.501Z,4.39
2023-01-17T08:31:55.519Z,4.42
2023-01-17T08:34:28.141Z,4.43
2023-01-17T08:37:18.987Z,4.48
2023-01-17T08:39:53.478Z,4.58
2023-01-17T08:42:23.568Z,4.68
2023-01-17T08:44:53.490Z,4.78
2023-01-17T08:47:23.532Z,4.87
2023-01-17T08:49:56.096Z,5.01
2023-01-17T08:52:26.306Z,5.18
2023-01-17T08:54:56.616Z,5.35
2023-01-17T08:57:26.875Z,5.51
2023-01-17T08:59:56.768Z,5.64
2023-01-17T09:02:29.950Z,5.74
2023-01-17T09:05:09.831Z,5.81
2023-01-17T09:07:39.829Z,5.84
2023-01-17T09:10:10.404Z,5.85
2023-01-17T09:12:40.644Z,5.86
2023-01-17T09:15:11.451Z,5.87
2023-01-17T09:17:41.468Z,5.89
2023-01-17T09:20:15.499Z,5.89
2023-01-17T09:22:47.780Z,5.84
2023-01-17T09:25:18.120Z,5.80
2023-01-17T09:27:49.030Z,5.70
2023-01-17T09:30:19.922Z,5.56
2023-01-17T09:32:55.301Z,5.43
2023-01-17T09:35:27.764Z,5.26
2023-01-17T09:37:57.578Z,4.99
2023-01-17T09:40:28.365Z,4.75
2023-01-17T09:43:03.857Z,4.57
2023-01-17T09:45:36.611Z,4.48
2023-01-17T09:48:14.529Z,4.41
2023-01-17T09:50:53.212Z,4.37
2023-01-17T09:53:24.051Z,4.36
2023-01-17T09:56:03.632Z,4.39
2023-01-17T09:58:41.002Z,4.41
2023-01-17T10:01:18.612Z,4.44
2023-01-17T10:04:06.895Z,4.45
2023-01-17T10:06:54.207Z,4.44
2023-01-17T10:13:03.502Z,4.39
2023-01-17T10:16:07.096Z,4.33
2023-01-17T10:19:03.993Z,4.27
2023-01-17T10:21:54.118Z,4.21
2023-01-17T10:25:00.500Z,4.18
2023-01-17T10:27:38.798Z,4.12
2023-01-17T10:30:26.221Z,4.15
2023-01-17T10:33:21.906Z,4.11
2023-01-17T10:35:57.415Z,4.12
2023-01-17T10:38:37.018Z,4.14
2023-01-17T10:41:11.748Z,4.13
2023-01-17T10:43:52.920Z,4.16
2023-01-17T10:46:30.661Z,4.15
2023-01-17T10:49:01.381Z,4.16
2023-01-17T10:52:00.503Z,4.19
2023-01-17T10:54:51.982Z,4.20
2023-01-17T10:57:24.650Z,4.20
2023-01-17T10:59:55.740Z,4.24
2023-01-17T11:02:28.873Z,4.29
2023-01-17T11:05:01.159Z,4.35
2023-01-17T11:07:32.893Z,4.42
2023-01-17T11:10:05.613Z,4.49
2023-01-17T11:12:40.170Z,4.55
2023-01-17T11:15:26.075Z,4.61
2023-01-17T11:18:05.562Z,4.68
2023-01-17T11:20:38.465Z,4.74
2023-01-17T11:23:15.513Z,4.83
2023-01-17T11:25:55.356Z,4.90
2023-01-17T11:28:30.719Z,4.94
2023-01-17T11:31:03.743Z,5.00
2023-01-17T11:33:46.097Z,5.06
2023-01-17T11:36:21.132Z,5.14
2023-01-17T11:38:59.138Z,5.20
2023-01-17T11:41:36.344Z,5.29
2023-01-17T11:44:22.640Z,5.32
2023-01-17T11:47:09.946Z,5.39
2023-01-17T11:49:40.211Z,5.43
2023-01-17T11:52:14.194Z,5.51
2023-01-17T11:54:48.274Z,5.55
2023-01-17T11:57:25.668Z,5.61
2023-01-17T12:00:07.709Z,5.62
2023-01-17T12:02:54.495Z,5.66
2023-01-17T12:05:35.834Z,5.72
2023-01-17T12:08:16.118Z,5.79
2023-01-17T12:10:54.521Z,5.80
2023-01-17T12:13:49.819Z,5.78
2023-01-17T12:16:34.475Z,5.78
2023-01-17T12:19:28.091Z,5.79
2023-01-17T12:22:11.042Z,5.82
2023-01-17T12:25:01.242Z,5.85
2023-01-17T12:27:42.777Z,5.89
2023-01-17T12:30:30.942Z,5.92
2023-01-17T12:33:16.387Z,5.96
2023-01-17T12:39:12.104Z,5.89
2023-01-17T12:41:59.269Z,5.83
2023-01-17T12:44:42.893Z,5.81
2023-01-17T12:47:18.732Z,5.80
2023-01-17T12:49:55.693Z,5.81
2023-01-17T12:52:38.207Z,5.84
2023-01-17T12:55:14.905Z,5.86
2023-01-17T12:57:50.674Z,5.90
2023-01-17T13:00:25.686Z,5.91
2023-01-17T13:03:06.823Z,5.92
2023-01-17T13:05:42.394Z,5.93
2023-01-17T13:08:23.950Z,5.93
2023-01-17T13:10:59.002Z,5.92
2023-01-17T13:13:30.897Z,5.91
2023-01-17T13:16:05.296Z,5.90
2023-01-17T13:18:40.922Z,5.91
2023-01-17T13:21:36.245Z,5.88
2023-01-17T13:24:19.023Z,5.83
2023-01-17T13:27:12.380Z,5.78
2023-01-17T13:29:57.168Z,5.75
2023-01-17T13:32:44.225Z,5.72
2023-01-17T13:35:25.272Z,5.69
2023-01-17T13:38:11.749Z,5.68
2023-01-17T13:40:52.835Z,5.65
2023-01-17T13:43:27.380Z,5.63
2023-01-17T13:45:59.495Z,5.62
2023-01-17T13:48:34.403Z,5.64
2023-01-17T13:51:07.698Z,5.64
2023-01-17T13:53:59.763Z,5.66
2023-01-17T13:56:37.788Z,5.65
2023-01-17T13:59:30.396Z,5.64
2023-01-17T14:02:00.446Z,5.64
2023-01-17T14:05:00.134Z,5.63
2023-01-17T14:07:36.075Z,5.61
2023-01-17T14:10:33.582Z,5.59
2023-01-17T14:13:04.407Z,5.54
2023-01-17T14:15:37.723Z,5.51
2023-01-17T14:18:08.372Z,5.47
2023-01-17T14:20:52.154Z,5.43
2023-01-17T14:23:35.009Z,5.39
2023-01-17T14:26:30.616Z,5.33
2023-01-17T14:29:02.363Z,5.28
2023-01-17T14:31:32.729Z,5.24
2023-01-17T14:34:15.012Z,5.21
2023-01-17T14:36:44.765Z,5.19
2023-01-17T14:39:26.343Z,5.18
2023-01-17T14:41:56.147Z,5.17
2023-01-17T14:44:25.930Z,5.16
2023-01-17T14:46:57.308Z,5.16
2023-01-17T14:49:27.244Z,5.15
2023-01-17T14:52:03.980Z,5.14
2023-01-17T14:54:37.016Z,5.11
2023-01-17T14:57:28.657Z,5.13
2023-01-17T15:00:18.656Z,5.11
2023-01-17T15:02:52.295Z,5.08
2023-01-17T15:05:24.883Z,5.07
2023-01-17T15:07:57.331Z,5.07
2023-01-17T15:10:32.779Z,5.06
2023-01-17T15:13:10.790Z,5.04
2023-01-17T15:15:42.493Z,5.02
2023-01-17T15:18:22.036Z,5.02
2023-01-17T15:20:59.865Z,4.97
2023-01-17T15:23:34.624Z,4.96
2023-01-17T15:26:09.257Z,4.95
2023-01-17T15:28:39.243Z,4.91
2023-01-17T15:31:13.445Z,4.87
2023-01-17T15:33:45.641Z,4.86
2023-01-17T15:36:30.211Z,4.81
2023-01-17T15:39:01.743Z,4.80
2023-01-17T15:41:37.204Z,4.80
2023-01-17T15:44:09.865Z,4.78
2023-01-17T15:46:45.553Z,4.77
2023-01-17T15:49:20.986Z,4.78
2023-01-17T15:51:56.356Z,4.78
2023-01-17T15:54:47.695Z,4.81
2023-01-17T15:57:28.757Z,4.79
2023-01-17T16:00:01.446Z,4.78
2023-01-17T16:02:52.147Z,4.79
2023-01-17T16:05:42.018Z,4.76
2023-01-17T16:08:30.854Z,4.74
2023-01-17T16:11:03.130Z,4.69
2023-01-17T16:13:38.746Z,4.64
2023-01-17T16:16:25.972Z,4.58
2023-01-17T16:19:02.342Z,4.50
2023-01-17T16:21:33.441Z,4.47
2023-01-17T16:24:04.290Z,4.44
2023-01-17T16:26:34.115Z,4.38
2023-01-17T16:29:07.682Z,4.34
2023-01-17T16:31:37.434Z,4.28
2023-01-17T16:34:14.222Z,4.27
2023-01-17T16:36:43.974Z,4.23
2023-01-17T16:39:16.159Z,4.21
2023-01-17T16:41:45.896Z,4.19
2023-01-17T16:44:18.244Z,4.18
2023-01-17T16:46:48.139Z,4.16
2023-01-17T16:49:18.790Z,4.15
2023-01-17T16:51:50.095Z,4.13
2023-01-17T16:54:19.859Z,4.11
2023-01-17T16:56:49.736Z,4.10
2023-01-17T16:59:22.151Z,4.07
2023-01-17T17:01:53.149Z,4.06
2023-01-17T17:04:23.104Z,4.03
2023-01-17T17:06:53.105Z,4.00
2023-01-17T17:09:23.053Z,3.99
2023-01-17T17:11:52.798Z,3.99
2023-01-17T17:14:25.317Z,3.97
2023-01-17T17:16:55.153Z,3.96
2023-01-17T17:19:25.580Z,3.93
2023-01-17T17:21:55.317Z,3.94
2023-01-17T17:24:25.124Z,3.95
2023-01-17T17:26:54.911Z,3.92
2023-01-17T17:29:27.279Z,3.93
2023-01-17T17:31:57.038Z,3.90
2023-01-17T17:34:28.322Z,3.91
2023-01-17T17:36:58.106Z,3.88
2023-01-17T17:39:27.860Z,3.88
2023-01-17T17:41:57.630Z,3.87
2023-01-17T17:44:30.110Z,3.87
2023-01-17T17:46:59.883Z,3.87
2023-01-17T17:49:29.628Z,3.87
2023-01-17T17:52:06.683Z,3.86
2023-01-17T17:54:37.089Z,3.83
2023-01-17T17:57:07.709Z,3.78
2023-01-17T17:59:40.158Z,3.78
2023-01-17T18:02:10.825Z,3.76
2023-01-17T18:04:40.787Z,3.72
2023-01-17T18:07:10.648Z,3.70
2023-01-17T18:09:40.525Z,3.66
2023-01-17T18:12:10.870Z,3.68
2023-01-17T18:14:43.327Z,3.67
2023-01-17T18:17:14.095Z,3.67
2023-01-17T18:19:46.907Z,3.67
2023-01-17T18:22:16.676Z,3.65
2023-01-17T18:24:46.430Z,3.64
2023-01-17T18:27:16.238Z,3.62
2023-01-17T18:29:49.276Z,3.58
2023-01-17T18:32:19.089Z,3.53
2023-01-17T18:34:49.008Z,3.52
2023-01-17T18:37:18.754Z,3.47
2023-01-17T18:39:48.527Z,3.45
2023-01-17T18:42:18.558Z,3.43
2023-01-17T18:44:51.107Z,3.38
2023-01-17T18:47:20.895Z,3.36
2023-01-17T18:49:53.875Z,3.33
2023-01-17T18:52:23.784Z,3.31
2023-01-17T18:54:53.523Z,3.28
2023-01-17T18:57:24.269Z,3.27
2023-01-17T18:59:57.294Z,3.25
2023-01-17T19:02:27.253Z,3.24
2023-01-17T19:04:57.040Z,3.24
2023-01-17T19:07:29.792Z,3.22
2023-01-17T19:09:59.552Z,3.20
2023-01-17T19:12:29.337Z,3.17
2023-01-17T19:15:01.706Z,3.16
2023-01-17T19:17:31.461Z,3.16
2023-01-17T19:20:01.216Z,3.17
2023-01-17T19:22:30.950Z,3.19
2023-01-17T19:25:00.687Z,3.19
2023-01-17T19:27:30.559Z,3.19
2023-01-17T19:30:02.936Z,3.20
2023-01-17T19:32:32.732Z,3.20
2023-01-17T19:35:03.079Z,3.20
2023-01-17T19:37:32.838Z,3.19
2023-01-17T19:40:02.672Z,3.21
2023-01-17T19:42:32.524Z,3.22
2023-01-17T19:45:04.978Z,3.21
2023-01-17T19:47:34.718Z,3.18
2023-01-17T19:50:04.656Z,3.18
2023-01-17T19:52:34.466Z,3.17
2023-01-17T19:55:07.124Z,3.16
2023-01-17T19:57:37.173Z,3.17
2023-01-17T20:00:12.919Z,3.19
2023-01-17T20:02:43.239Z,3.19
2023-01-17T20:05:13.146Z,3.20
2023-01-17T20:07:42.902Z,3.19
2023-01-17T20:10:14.046Z,3.21
2023-01-17T20:12:43.829Z,3.20
2023-01-17T20:15:16.532Z,3.18
2023-01-17T20:17:46.364Z,3.18
2023-01-17T20:20:16.438Z,3.18
2023-01-17T20:22:46.720Z,3.17
2023-01-17T20:25:16.899Z,3.17
2023-01-17T20:27:46.824Z,3.17
2023-01-17T20:30:20.875Z,3.15
2023-01-17T20:32:51.254Z,3.12
2023-01-17T20:35:20.994Z,3.07
2023-01-17T20:37:53.540Z,3.04
2023-01-17T20:40:23.315Z,3.01
2023-01-17T20:42:53.069Z,3.01
2023-01-17T20:45:25.478Z,3.01
2023-01-17T20:47:55.592Z,2.98
2023-01-17T20:50:25.627Z,2.96
2023-01-17T20:52:55.366Z,2.96
2023-01-17T20:55:25.112Z,2.95
2023-01-17T20:57:55.009Z,2.93
2023-01-17T21:00:27.945Z,2.92
2023-01-17T21:02:57.780Z,2.90
2023-01-17T21:05:27.777Z,2.91
2023-01-17T21:07:57.849Z,2.89
2023-01-17T21:10:29.430Z,2.89
2023-01-17T21:13:00.255Z,2.88
2023-01-17T21:15:32.598Z,2.88
2023-01-17T21:18:02.348Z,2.88
2023-01-17T21:20:34.788Z,2.87
2023-01-17T21:23:08.672Z,2.87
2023-01-17T21:25:38.493Z,2.90
2023-01-17T21:28:08.741Z,2.92
2023-01-17T21:30:41.131Z,2.96
2023-01-17T21:33:10.923Z,2.96
2023-01-17T21:35:40.685Z,2.97
2023-01-17T21:38:10.460Z,2.98
2023-01-17T21:40:40.248Z,2.98
2023-01-17T21:43:10.778Z,2.98
2023-01-17T21:45:44.629Z,2.96
2023-01-17T21:48:15.094Z,2.95
2023-01-17T21:50:45.318Z,2.94
2023-01-17T21:53:15.095Z,2.95
2023-01-17T21:55:57.359Z,2.96
2023-01-17T21:58:39.552Z,2.93
2023-01-17T22:01:18.965Z,2.95
2023-01-17T22:03:52.183Z,2.94
2023-01-17T22:06:23.010Z,2.93
2023-01-17T22:08:52.899Z,2.94
2023-01-17T22:11:25.161Z,2.91
2023-01-17T22:13:57.378Z,2.89
2023-01-17T22:16:31.221Z,2.89
2023-01-17T22:19:01.014Z,2.87
2023-01-17T22:21:31.718Z,2.86
2023-01-17T22:24:02.775Z,2.84
2023-01-17T22:26:35.121Z,2.83
2023-01-17T22:29:05.405Z,2.81
2023-01-17T22:31:37.840Z,2.80
2023-01-17T22:34:08.134Z,2.80
2023-01-17T22:36:38.002Z,2.77
2023-01-17T22:39:07.943Z,2.76
2023-01-17T22:41:40.523Z,2.74
2023-01-17T22:44:11.405Z,2.73
2023-01-17T22:46:43.932Z,2.73
2023-01-17T22:49:17.000Z,2.71
2023-01-17T22:51:46.753Z,2.69
2023-01-17T22:54:16.512Z,2.66
2023-01-17T22:56:46.316Z,2.63
2023-01-17T22:59:16.268Z,2.62
2023-01-17T23:01:48.618Z,2.60
2023-01-17T23:04:18.889Z,2.59
2023-01-17T23:06:48.715Z,2.56
2023-01-17T23:09:19.662Z,2.54
2023-01-17T23:11:53.004Z,2.54
2023-01-17T23:14:25.143Z,2.56
2023-01-17T23:17:11.554Z,2.56
2023-01-17T23:19:43.228Z,2.55
2023-01-17T23:22:24.195Z,2.56
2023-01-17T23:24:57.122Z,2.57
2023-01-17T23:27:41.033Z,2.59
2023-01-17T23:30:13.765Z,2.62
